sensor_id;sensor_type;location;lat;lon;timestamp;pressure;altitude;pressure_sealevel;temperature;humidity
22241;BME280;11289;52.524;13.694;2023-03-26T00:01:31;99539.88;;;7.29;87.27
22241;BME280;11289;52.524;13.694;2023-03-26T00:04:04;99551.53;;;7.35;86.84
22241;BME280;11289;52.524;13.694;2023-03-26T00:06:34;99566.91;;;7.44;86.94
22241;BME280;11289;52.524;13.694;2023-03-26T00:09:03;99569.00;;;7.47;87.01
22241;BME280;11289;52.524;13.694;2023-03-26T00:11:31;99568.53;;;7.45;86.76
22241;BME280;11289;52.524;13.694;2023-03-26T00:13:57;99568.59;;;7.37;86.82
22241;BME280;11289;52.524;13.694;2023-03-26T00:16:29;99579.09;;;7.43;86.59
22241;BME280;11289;52.524;13.694;2023-03-26T00:18:56;99582.53;;;7.40;86.64
22241;BME280;11289;52.524;13.694;2023-03-26T00:21:29;99586.75;;;7.46;86.76
22241;BME280;11289;52.524;13.694;2023-03-26T00:24:12;99584.00;;;7.38;86.98
22241;BME280;11289;52.524;13.694;2023-03-26T00:26:40;99590.03;;;7.40;86.58
22241;BME280;11289;52.524;13.694;2023-03-26T00:29:06;99571.03;;;7.38;86.28
22241;BME280;11289;52.524;13.694;2023-03-26T00:31:36;99573.00;;;7.29;86.08
22241;BME280;11289;52.524;13.694;2023-03-26T00:34:05;99584.81;;;7.38;85.72
22241;BME280;11289;52.524;13.694;2023-03-26T00:36:31;99578.00;;;7.36;85.49
22241;BME280;11289;52.524;13.694;2023-03-26T00:39:00;99591.31;;;7.42;85.57
22241;BME280;11289;52.524;13.694;2023-03-26T00:41:30;99590.81;;;7.40;85.06
22241;BME280;11289;52.524;13.694;2023-03-26T00:44:00;99578.34;;;7.34;85.23
22241;BME280;11289;52.524;13.694;2023-03-26T00:46:28;99579.97;;;7.35;85.15
22241;BME280;11289;52.524;13.694;2023-03-26T00:48:55;99573.50;;;7.31;84.95
22241;BME280;11289;52.524;13.694;2023-03-26T00:51:46;99588.88;;;7.41;84.94
22241;BME280;11289;52.524;13.694;2023-03-26T00:54:12;99579.97;;;7.35;84.47
22241;BME280;11289;52.524;13.694;2023-03-26T00:56:38;99564.59;;;7.25;84.57
22241;BME280;11289;52.524;13.694;2023-03-26T00:59:04;99561.03;;;7.25;84.68
22241;BME280;11289;52.524;13.694;2023-03-26T01:01:31;99563.13;;;7.28;84.18
22241;BME280;11289;52.524;13.694;2023-03-26T01:04:18;99588.53;;;7.42;84.17
22241;BME280;11289;52.524;13.694;2023-03-26T01:06:53;99559.41;;;7.24;83.46
22241;BME280;11289;52.524;13.694;2023-03-26T01:09:27;99565.28;;;7.22;83.98
22241;BME280;11289;52.524;13.694;2023-03-26T01:12:05;99567.69;;;7.24;83.42
22241;BME280;11289;52.524;13.694;2023-03-26T01:14:48;99595.19;;;7.41;83.51
22241;BME280;11289;52.524;13.694;2023-03-26T01:17:16;99591.16;;;7.39;83.12
22241;BME280;11289;52.524;13.694;2023-03-26T01:19:53;99605.78;;;7.39;83.08
22241;BME280;11289;52.524;13.694;2023-03-26T01:22:27;99585.50;;;7.35;83.23
22241;BME280;11289;52.524;13.694;2023-03-26T01:24:53;99597.97;;;7.41;82.95
22241;BME280;11289;52.524;13.694;2023-03-26T01:27:44;99602.34;;;7.42;82.99
22241;BME280;11289;52.524;13.694;2023-03-26T01:35:46;99602.34;;;7.42;83.02
22241;BME280;11289;52.524;13.694;2023-03-26T01:38:45;99613.41;;;7.42;82.75
22241;BME280;11289;52.524;13.694;2023-03-26T01:41:29;99608.34;;;7.44;82.98
22241;BME280;11289;52.524;13.694;2023-03-26T01:44:06;99596.53;;;7.35;83.20
22241;BME280;11289;52.524;13.694;2023-03-26T01:46:36;99613.72;;;7.41;83.49
22241;BME280;11289;52.524;13.694;2023-03-26T01:49:05;99610.16;;;7.40;83.09
22241;BME280;11289;52.524;13.694;2023-03-26T01:51:42;99612.56;;;7.42;82.97
22241;BME280;11289;52.524;13.694;2023-03-26T01:54:18;99591.19;;;7.30;83.32
22241;BME280;11289;52.524;13.694;2023-03-26T01:57:16;99611.78;;;7.41;83.71
22241;BME280;11289;52.524;13.694;2023-03-26T02:02:36;99615.66;;;7.40;83.50
22241;BME280;11289;52.524;13.694;2023-03-26T02:05:14;99600.44;;;7.34;83.46
22241;BME280;11289;52.524;13.694;2023-03-26T02:07:50;99611.16;;;7.36;82.70
22241;BME280;11289;52.524;13.694;2023-03-26T02:10:28;99580.75;;;7.14;82.85
22241;BME280;11289;52.524;13.694;2023-03-26T02:12:56;99601.97;;;7.23;82.93
22241;BME280;11289;52.524;13.694;2023-03-26T02:15:23;99604.88;;;7.26;82.40
22241;BME280;11289;52.524;13.694;2023-03-26T02:17:49;99591.63;;;7.11;82.92
22241;BME280;11289;52.524;13.694;2023-03-26T02:20:22;99611.53;;;7.25;82.97
22241;BME280;11289;52.524;13.694;2023-03-26T02:23:04;99614.00;;;7.18;83.08
22241;BME280;11289;52.524;13.694;2023-03-26T02:25:48;99582.38;;;7.07;82.68
22241;BME280;11289;52.524;13.694;2023-03-26T02:28:24;99590.66;;;7.07;82.67
22241;BME280;11289;52.524;13.694;2023-03-26T02:31:05;99616.44;;;7.20;82.77
22241;BME280;11289;52.524;13.694;2023-03-26T02:33:55;99598.91;;;7.15;82.33
22241;BME280;11289;52.524;13.694;2023-03-26T02:36:21;99610.78;;;7.16;82.91
22241;BME280;11289;52.524;13.694;2023-03-26T02:38:54;99586.63;;;7.04;82.86
22241;BME280;11289;52.524;13.694;2023-03-26T02:41:22;99608.19;;;7.11;83.08
22241;BME280;11289;52.524;13.694;2023-03-26T02:43:53;99606.22;;;7.11;83.37
22241;BME280;11289;52.524;13.694;2023-03-26T02:46:25;99606.44;;;7.06;83.00
22241;BME280;11289;52.524;13.694;2023-03-26T02:48:51;99598.66;;;7.00;82.85
22241;BME280;11289;52.524;13.694;2023-03-26T02:51:17;99620.41;;;7.01;82.95
22241;BME280;11289;52.524;13.694;2023-03-26T02:53:50;99620.59;;;6.96;83.27
22241;BME280;11289;52.524;13.694;2023-03-26T02:56:18;99610.06;;;6.89;83.28
22241;BME280;11289;52.524;13.694;2023-03-26T02:58:44;99625.63;;;6.94;83.45
22241;BME280;11289;52.524;13.694;2023-03-26T03:01:12;99605.72;;;6.79;83.73
22241;BME280;11289;52.524;13.694;2023-03-26T03:03:47;99626.81;;;6.84;83.83
22241;BME280;11289;52.524;13.694;2023-03-26T03:06:16;99624.81;;;6.93;83.85
22241;BME280;11289;52.524;13.694;2023-03-26T03:08:44;99617.72;;;6.84;84.04
22241;BME280;11289;52.524;13.694;2023-03-26T03:11:12;99612.69;;;6.86;84.28
22241;BME280;11289;52.524;13.694;2023-03-26T03:13:39;99609.59;;;6.87;84.17
22241;BME280;11289;52.524;13.694;2023-03-26T03:16:22;99630.66;;;7.01;84.29
22241;BME280;11289;52.524;13.694;2023-03-26T03:18:48;99624.34;;;6.91;84.37
22241;BME280;11289;52.524;13.694;2023-03-26T03:21:19;99630.31;;;7.02;83.89
22241;BME280;11289;52.524;13.694;2023-03-26T03:23:45;99622.22;;;6.88;83.79
22241;BME280;11289;52.524;13.694;2023-03-26T03:26:14;99633.41;;;7.01;83.70
22241;BME280;11289;52.524;13.694;2023-03-26T03:28:40;99620.09;;;6.94;83.33
22241;BME280;11289;52.524;13.694;2023-03-26T03:31:06;99639.56;;;7.06;83.71
22241;BME280;11289;52.524;13.694;2023-03-26T03:33:40;99640.03;;;7.08;83.81
22241;BME280;11289;52.524;13.694;2023-03-26T03:36:09;99629.34;;;6.98;84.05
22241;BME280;11289;52.524;13.694;2023-03-26T03:39:00;99649.75;;;7.14;83.87
22241;BME280;11289;52.524;13.694;2023-03-26T03:41:30;99641.31;;;7.11;83.63
22241;BME280;11289;52.524;13.694;2023-03-26T03:43:56;99631.44;;;7.01;83.49
22241;BME280;11289;52.524;13.694;2023-03-26T03:46:24;99650.88;;;7.13;83.20
22241;BME280;11289;52.524;13.694;2023-03-26T03:48:50;99631.44;;;7.01;83.17
22241;BME280;11289;52.524;13.694;2023-03-26T03:51:16;99652.53;;;7.14;83.06
22241;BME280;11289;52.524;13.694;2023-03-26T03:53:47;99648.59;;;7.15;83.12
22241;BME280;11289;52.524;13.694;2023-03-26T03:56:21;99629.00;;;7.00;82.90
22241;BME280;11289;52.524;13.694;2023-03-26T03:58:49;99635.81;;;7.02;82.92
22241;BME280;11289;52.524;13.694;2023-03-26T04:01:18;99652.69;;;7.09;82.52
22241;BME280;11289;52.524;13.694;2023-03-26T04:03:47;99661.25;;;7.17;82.91
22241;BME280;11289;52.524;13.694;2023-03-26T04:06:18;99656.72;;;7.21;82.98
22241;BME280;11289;52.524;13.694;2023-03-26T04:08:51;99659.13;;;7.22;83.13
22241;BME280;11289;52.524;13.694;2023-03-26T04:11:21;99627.56;;;7.02;82.72
22241;BME280;11289;52.524;13.694;2023-03-26T04:13:48;99659.94;;;7.23;82.82
22241;BME280;11289;52.524;13.694;2023-03-26T04:16:17;99656.72;;;7.21;82.78
22241;BME280;11289;52.524;13.694;2023-03-26T04:18:51;99665.47;;;7.23;82.69
22241;BME280;11289;52.524;13.694;2023-03-26T04:21:25;99653.94;;;7.21;82.47
22241;BME280;11289;52.524;13.694;2023-03-26T04:24:03;99646.84;;;7.11;82.84
22241;BME280;11289;52.524;13.694;2023-03-26T04:26:30;99656.53;;;7.17;82.52
22241;BME280;11289;52.524;13.694;2023-03-26T04:29:01;99652.81;;;7.13;83.10
22241;BME280;11289;52.524;13.694;2023-03-26T04:31:29;99666.91;;;7.20;83.04
22241;BME280;11289;52.524;13.694;2023-03-26T04:34:00;99652.81;;;7.13;82.86
22241;BME280;11289;52.524;13.694;2023-03-26T04:36:46;99661.91;;;7.22;83.33
22241;BME280;11289;52.524;13.694;2023-03-26T04:39:19;99670.97;;;7.23;83.21
22241;BME280;11289;52.524;13.694;2023-03-26T04:41:55;99661.41;;;7.20;83.37
22241;BME280;11289;52.524;13.694;2023-03-26T04:44:29;99646.19;;;7.05;83.47
22241;BME280;11289;52.524;13.694;2023-03-26T04:46:56;99678.78;;;7.21;83.39
22241;BME280;11289;52.524;13.694;2023-03-26T04:49:22;99671.50;;;7.16;83.59
22241;BME280;11289;52.524;13.694;2023-03-26T04:51:49;99670.84;;;7.19;83.67
22241;BME280;11289;52.524;13.694;2023-03-26T04:54:17;99663.69;;;7.18;83.65
22241;BME280;11289;52.524;13.694;2023-03-26T04:59:19;99673.59;;;7.19;83.55
22241;BME280;11289;52.524;13.694;2023-03-26T05:01:57;99651.88;;;7.09;83.58
22241;BME280;11289;52.524;13.694;2023-03-26T05:04:26;99669.34;;;7.22;83.49
22241;BME280;11289;52.524;13.694;2023-03-26T05:06:55;99633.53;;;7.04;83.45
22241;BME280;11289;52.524;13.694;2023-03-26T05:09:27;99647.84;;;7.06;83.65
22241;BME280;11289;52.524;13.694;2023-03-26T05:11:53;99666.59;;;7.22;83.49
22241;BME280;11289;52.524;13.694;2023-03-26T05:14:19;99668.72;;;7.25;83.57
22241;BME280;11289;52.524;13.694;2023-03-26T05:16:46;99665.00;;;7.21;83.67
22241;BME280;11289;52.524;13.694;2023-03-26T05:19:28;99656.06;;;7.15;83.59
22241;BME280;11289;52.524;13.694;2023-03-26T05:21:54;99659.94;;;7.23;83.46
22241;BME280;11289;52.524;13.694;2023-03-26T05:24:23;99652.53;;;7.14;83.47
22241;BME280;11289;52.524;13.694;2023-03-26T05:26:50;99651.22;;;7.12;83.16
22241;BME280;11289;52.524;13.694;2023-03-26T05:29:22;99655.75;;;7.17;83.08
22241;BME280;11289;52.524;13.694;2023-03-26T05:31:49;99664.66;;;7.22;83.05
22241;BME280;11289;52.524;13.694;2023-03-26T05:34:15;99682.19;;;7.26;82.76
22241;BME280;11289;52.524;13.694;2023-03-26T05:36:50;99671.47;;;7.25;82.98
22241;BME280;11289;52.524;13.694;2023-03-26T05:39:22;99676.78;;;7.30;83.05
22241;BME280;11289;52.524;13.694;2023-03-26T05:41:52;99677.50;;;7.18;82.40
22241;BME280;11289;52.524;13.694;2023-03-26T05:44:26;99688.34;;;7.32;82.42
22241;BME280;11289;52.524;13.694;2023-03-26T05:46:52;99690.28;;;7.31;82.31
22241;BME280;11289;52.524;13.694;2023-03-26T05:49:24;99682.31;;;7.30;82.48
22241;BME280;11289;52.524;13.694;2023-03-26T05:51:50;99686.38;;;7.32;82.63
22241;BME280;11289;52.524;13.694;2023-03-26T05:54:16;99680.50;;;7.34;82.20
22241;BME280;11289;52.524;13.694;2023-03-26T05:56:41;99654.94;;;7.16;82.37
22241;BME280;11289;52.524;13.694;2023-03-26T05:59:07;99671.13;;;7.26;82.19
22241;BME280;11289;52.524;13.694;2023-03-26T06:01:33;99660.09;;;7.26;82.43
22241;BME280;11289;52.524;13.694;2023-03-26T06:04:01;99687.97;;;7.42;82.52
22241;BME280;11289;52.524;13.694;2023-03-26T06:06:30;99691.19;;;7.44;82.37
22241;BME280;11289;52.524;13.694;2023-03-26T06:08:57;99689.09;;;7.41;82.78
22241;BME280;11289;52.524;13.694;2023-03-26T06:11:24;99692.47;;;7.47;82.68
22241;BME280;11289;52.524;13.694;2023-03-26T06:13:56;99688.25;;;7.49;82.56
22241;BME280;11289;52.524;13.694;2023-03-26T06:16:23;99691.78;;;7.59;82.52
22241;BME280;11289;52.524;13.694;2023-03-26T06:18:48;99683.66;;;7.54;82.51
22241;BME280;11289;52.524;13.694;2023-03-26T06:21:16;99676.53;;;7.53;81.50
22241;BME280;11289;52.524;13.694;2023-03-26T06:23:43;99688.22;;;7.58;81.78
22241;BME280;11289;52.524;13.694;2023-03-26T06:26:09;99682.41;;;7.51;81.65
22241;BME280;11289;52.524;13.694;2023-03-26T06:28:35;99693.41;;;7.60;80.52
22241;BME280;11289;52.524;13.694;2023-03-26T06:31:01;99710.47;;;7.53;79.61
22241;BME280;11289;52.524;13.694;2023-03-26T06:33:28;99713.13;;;7.49;79.19
22241;BME280;11289;52.524;13.694;2023-03-26T06:35:55;99722.38;;;7.45;79.89
22241;BME280;11289;52.524;13.694;2023-03-26T06:38:43;99718.19;;;7.39;80.09
22241;BME280;11289;52.524;13.694;2023-03-26T06:41:16;99686.44;;;7.15;80.74
22241;BME280;11289;52.524;13.694;2023-03-26T06:43:44;99719.22;;;7.25;81.52
22241;BME280;11289;52.524;13.694;2023-03-26T06:46:10;99697.97;;;7.08;81.25
22241;BME280;11289;52.524;13.694;2023-03-26T06:48:37;99720.19;;;7.21;81.44
22241;BME280;11289;52.524;13.694;2023-03-26T06:51:04;99721.69;;;7.09;81.02
22241;BME280;11289;52.524;13.694;2023-03-26T06:53:30;99713.44;;;7.01;81.02
22241;BME280;11289;52.524;13.694;2023-03-26T06:55:56;99727.38;;;7.04;80.95
22241;BME280;11289;52.524;13.694;2023-03-26T06:58:22;99704.22;;;6.88;80.39
22241;BME280;11289;52.524;13.694;2023-03-26T07:00:52;99724.00;;;6.99;80.94
22241;BME280;11289;52.524;13.694;2023-03-26T07:03:18;99692.06;;;6.80;81.33
22241;BME280;11289;52.524;13.694;2023-03-26T07:05:45;99716.66;;;7.03;81.61
22241;BME280;11289;52.524;13.694;2023-03-26T07:08:14;99722.50;;;7.10;81.98
22241;BME280;11289;52.524;13.694;2023-03-26T07:10:40;99710.34;;;7.02;81.93
22241;BME280;11289;52.524;13.694;2023-03-26T07:13:06;99726.06;;;7.19;81.55
22241;BME280;11289;52.524;13.694;2023-03-26T07:15:32;99713.06;;;7.20;81.46
22241;BME280;11289;52.524;13.694;2023-03-26T07:17:58;99714.81;;;7.24;82.29
22241;BME280;11289;52.524;13.694;2023-03-26T07:20:24;99714.94;;;7.37;82.75
22241;BME280;11289;52.524;13.694;2023-03-26T07:23:00;99710.06;;;7.42;81.89
22241;BME280;11289;52.524;13.694;2023-03-26T07:25:26;99690.91;;;7.37;81.54
22241;BME280;11289;52.524;13.694;2023-03-26T07:31:18;99711.25;;;7.92;82.80
22241;BME280;11289;52.524;13.694;2023-03-26T07:33:58;99706.66;;;8.47;82.31
22241;BME280;11289;52.524;13.694;2023-03-26T07:36:34;99705.44;;;8.57;79.44
22241;BME280;11289;52.524;13.694;2023-03-26T07:39:45;99706.84;;;8.63;78.38
22241;BME280;11289;52.524;13.694;2023-03-26T07:42:55;99712.81;;;8.65;76.54
22241;BME280;11289;52.524;13.694;2023-03-26T07:45:10;99711.69;;;8.66;75.69
22241;BME280;11289;52.524;13.694;2023-03-26T07:47:41;99715.94;;;8.64;74.33
22241;BME280;11289;52.524;13.694;2023-03-26T07:50:15;99713.09;;;8.73;74.51
22241;BME280;11289;52.524;13.694;2023-03-26T07:52:46;99706.91;;;8.88;72.91
22241;BME280;11289;52.524;13.694;2023-03-26T07:55:15;99708.19;;;8.91;74.51
22241;BME280;11289;52.524;13.694;2023-03-26T08:00:54;99710.06;;;8.99;72.89
22241;BME280;11289;52.524;13.694;2023-03-26T08:03:30;99713.50;;;8.96;72.34
22241;BME280;11289;52.524;13.694;2023-03-26T08:06:18;99710.75;;;8.96;71.89
22241;BME280;11289;52.524;13.694;2023-03-26T08:08:59;99702.19;;;8.88;71.83
22241;BME280;11289;52.524;13.694;2023-03-26T08:20:21;99723.63;;;8.92;70.89
22241;BME280;11289;52.524;13.694;2023-03-26T08:23:12;99708.75;;;8.84;70.99
22241;BME280;11289;52.524;13.694;2023-03-26T08:31:31;99709.31;;;8.77;72.59
22241;BME280;11289;52.524;13.694;2023-03-26T08:34:00;99709.78;;;8.92;72.09
22241;BME280;11289;52.524;13.694;2023-03-26T08:36:26;99715.81;;;8.94;71.67
22241;BME280;11289;52.524;13.694;2023-03-26T08:38:54;99709.94;;;8.95;71.72
22241;BME280;11289;52.524;13.694;2023-03-26T08:47:27;99701.63;;;8.95;70.62
22241;BME280;11289;52.524;13.694;2023-03-26T08:53:25;99711.44;;;8.93;71.69
22241;BME280;11289;52.524;13.694;2023-03-26T08:56:00;99684.66;;;8.84;72.33
22241;BME280;11289;52.524;13.694;2023-03-26T09:01:46;99702.88;;;9.44;72.31
22241;BME280;11289;52.524;13.694;2023-03-26T09:08:01;99681.06;;;9.79;70.28
22241;BME280;11289;52.524;13.694;2023-03-26T09:14:28;99692.88;;;10.17;68.26
22241;BME280;11289;52.524;13.694;2023-03-26T09:23:09;99687.53;;;9.83;68.05
22241;BME280;11289;52.524;13.694;2023-03-26T09:32:54;99695.13;;;9.37;69.41
22241;BME280;11289;52.524;13.694;2023-03-26T09:35:11;99684.88;;;9.25;70.43
22241;BME280;11289;52.524;13.694;2023-03-26T09:40:55;99662.97;;;8.99;71.03
22241;BME280;11289;52.524;13.694;2023-03-26T09:50:08;99671.72;;;8.88;72.75
22241;BME280;11289;52.524;13.694;2023-03-26T09:52:46;99682.13;;;8.92;72.87
22241;BME280;11289;52.524;13.694;2023-03-26T10:00:57;99694.34;;;8.91;74.43
22241;BME280;11289;52.524;13.694;2023-03-26T10:03:55;99698.50;;;8.84;74.67
22241;BME280;11289;52.524;13.694;2023-03-26T10:12:40;99709.00;;;8.58;76.56
22241;BME280;11289;52.524;13.694;2023-03-26T10:27:26;99703.34;;;8.54;80.04
22241;BME280;11289;52.524;13.694;2023-03-26T10:33:50;99710.13;;;8.78;81.20
22241;BME280;11289;52.524;13.694;2023-03-26T10:50:28;99699.59;;;9.17;77.82
22241;BME280;11289;52.524;13.694;2023-03-26T10:56:22;99674.09;;;9.11;78.15
22241;BME280;11289;52.524;13.694;2023-03-26T10:58:51;99687.94;;;9.23;78.80
22241;BME280;11289;52.524;13.694;2023-03-26T11:13:51;99698.56;;;9.21;77.42
22241;BME280;11289;52.524;13.694;2023-03-26T11:16:27;99702.72;;;9.28;77.55
22241;BME280;11289;52.524;13.694;2023-03-26T11:19:19;99685.28;;;9.15;77.13
22241;BME280;11289;52.524;13.694;2023-03-26T11:21:56;99693.47;;;9.23;76.09
22241;BME280;11289;52.524;13.694;2023-03-26T11:30:52;99686.81;;;9.74;76.29
22241;BME280;11289;52.524;13.694;2023-03-26T11:36:32;99681.97;;;9.83;73.61
22241;BME280;11289;52.524;13.694;2023-03-26T11:39:03;99680.34;;;9.82;74.74
22241;BME280;11289;52.524;13.694;2023-03-26T11:41:31;99678.59;;;9.90;74.54
22241;BME280;11289;52.524;13.694;2023-03-26T11:44:04;99679.50;;;10.06;74.70
22241;BME280;11289;52.524;13.694;2023-03-26T11:46:41;99677.94;;;10.34;75.52
22241;BME280;11289;52.524;13.694;2023-03-26T11:49:11;99680.59;;;10.71;73.60
22241;BME280;11289;52.524;13.694;2023-03-26T11:51:40;99672.13;;;10.95;72.50
22241;BME280;11289;52.524;13.694;2023-03-26T11:54:09;99673.59;;;11.37;71.82
22241;BME280;11289;52.524;13.694;2023-03-26T11:59:13;99666.94;;;11.58;68.12
22241;BME280;11289;52.524;13.694;2023-03-26T12:04:40;99673.75;;;12.12;67.91
22241;BME280;11289;52.524;13.694;2023-03-26T12:07:28;99662.34;;;12.17;66.57
22241;BME280;11289;52.524;13.694;2023-03-26T12:10:20;99660.88;;;12.23;64.78
22241;BME280;11289;52.524;13.694;2023-03-26T12:12:46;99655.09;;;12.32;62.67
22241;BME280;11289;52.524;13.694;2023-03-26T12:15:18;99650.84;;;12.18;63.54
22241;BME280;11289;52.524;13.694;2023-03-26T12:17:46;99646.38;;;12.33;65.14
22241;BME280;11289;52.524;13.694;2023-03-26T12:22:56;99647.66;;;12.79;62.39
22241;BME280;11289;52.524;13.694;2023-03-26T12:30:41;99624.22;;;13.26;59.24
22241;BME280;11289;52.524;13.694;2023-03-26T12:33:15;99608.25;;;13.23;60.31
22241;BME280;11289;52.524;13.694;2023-03-26T12:35:49;99603.13;;;13.29;59.86
22241;BME280;11289;52.524;13.694;2023-03-26T12:38:30;99600.72;;;13.50;60.97
22241;BME280;11289;52.524;13.694;2023-03-26T12:41:07;99612.19;;;13.72;59.59
22241;BME280;11289;52.524;13.694;2023-03-26T12:43:45;99605.06;;;13.74;59.18
22241;BME280;11289;52.524;13.694;2023-03-26T12:46:31;99610.16;;;13.99;56.73
22241;BME280;11289;52.524;13.694;2023-03-26T12:49:03;99604.94;;;14.28;56.98
22241;BME280;11289;52.524;13.694;2023-03-26T12:51:47;99608.78;;;14.50;56.66
22241;BME280;11289;52.524;13.694;2023-03-26T12:54:49;99607.75;;;14.62;54.81
22241;BME280;11289;52.524;13.694;2023-03-26T12:57:23;99615.59;;;14.53;52.20
22241;BME280;11289;52.524;13.694;2023-03-26T13:00:23;99609.97;;;14.49;53.48
22241;BME280;11289;52.524;13.694;2023-03-26T13:08:38;99617.69;;;14.25;53.32
22241;BME280;11289;52.524;13.694;2023-03-26T13:11:18;99591.91;;;14.05;53.09
22241;BME280;11289;52.524;13.694;2023-03-26T13:14:25;99568.19;;;13.88;53.29
22241;BME280;11289;52.524;13.694;2023-03-26T13:17:22;99603.50;;;14.07;53.26
22241;BME280;11289;52.524;13.694;2023-03-26T13:20:00;99603.88;;;14.06;52.56
22241;BME280;11289;52.524;13.694;2023-03-26T13:23:00;99592.47;;;13.88;50.97
22241;BME280;11289;52.524;13.694;2023-03-26T13:28:08;99593.16;;;13.51;52.10
22241;BME280;11289;52.524;13.694;2023-03-26T13:30:50;99583.69;;;13.32;53.67
22241;BME280;11289;52.524;13.694;2023-03-26T13:33:40;99593.97;;;13.28;54.04
22241;BME280;11289;52.524;13.694;2023-03-26T13:47:48;99582.16;;;13.62;53.10
22241;BME280;11289;52.524;13.694;2023-03-26T13:50:47;99588.00;;;13.53;53.34
22241;BME280;11289;52.524;13.694;2023-03-26T13:53:27;99578.47;;;13.54;53.77
22241;BME280;11289;52.524;13.694;2023-03-26T13:55:58;99563.81;;;13.61;54.54
22241;BME280;11289;52.524;13.694;2023-03-26T13:58:51;99583.53;;;13.75;52.79
22241;BME280;11289;52.524;13.694;2023-03-26T14:01:56;99579.56;;;13.76;52.58
22241;BME280;11289;52.524;13.694;2023-03-26T14:07:12;99573.44;;;13.36;52.39
22241;BME280;11289;52.524;13.694;2023-03-26T14:17:35;99585.00;;;12.92;54.37
22241;BME280;11289;52.524;13.694;2023-03-26T14:28:42;99578.31;;;12.50;55.57
22241;BME280;11289;52.524;13.694;2023-03-26T14:41:50;99577.84;;;12.68;53.64
22241;BME280;11289;52.524;13.694;2023-03-26T14:52:51;99564.47;;;12.77;52.15
22241;BME280;11289;52.524;13.694;2023-03-26T15:10:16;99562.50;;;12.78;50.27
22241;BME280;11289;52.524;13.694;2023-03-26T15:13:00;99557.25;;;12.73;50.64
22241;BME280;11289;52.524;13.694;2023-03-26T15:21:14;99551.28;;;12.51;50.71
22241;BME280;11289;52.524;13.694;2023-03-26T15:24:16;99553.06;;;12.40;51.58
22241;BME280;11289;52.524;13.694;2023-03-26T15:27:01;99559.00;;;12.38;52.09
22241;BME280;11289;52.524;13.694;2023-03-26T15:30:21;99557.19;;;12.26;52.30
22241;BME280;11289;52.524;13.694;2023-03-26T15:41:15;99551.03;;;11.97;53.79
22241;BME280;11289;52.524;13.694;2023-03-26T15:47:00;99557.34;;;11.94;54.42
22241;BME280;11289;52.524;13.694;2023-03-26T15:50:17;99553.28;;;11.92;55.28
22241;BME280;11289;52.524;13.694;2023-03-26T15:53:34;99554.38;;;11.87;55.10
22241;BME280;11289;52.524;13.694;2023-03-26T15:55:43;99552.19;;;11.77;54.67
22241;BME280;11289;52.524;13.694;2023-03-26T16:01:46;99553.03;;;11.61;54.77
22241;BME280;11289;52.524;13.694;2023-03-26T16:04:40;99553.25;;;11.53;54.80
22241;BME280;11289;52.524;13.694;2023-03-26T16:07:44;99554.69;;;11.46;55.16
22241;BME280;11289;52.524;13.694;2023-03-26T16:10:26;99544.94;;;11.37;55.91
22241;BME280;11289;52.524;13.694;2023-03-26T16:15:56;99551.34;;;11.21;56.09
22241;BME280;11289;52.524;13.694;2023-03-26T16:18:55;99529.59;;;11.07;56.05
22241;BME280;11289;52.524;13.694;2023-03-26T16:22:34;99549.03;;;11.07;56.37
22241;BME280;11289;52.524;13.694;2023-03-26T16:24:45;99552.00;;;10.98;55.91
22241;BME280;11289;52.524;13.694;2023-03-26T16:32:33;99558.69;;;10.82;56.67
22241;BME280;11289;52.524;13.694;2023-03-26T16:37:42;99563.34;;;10.77;56.80
22241;BME280;11289;52.524;13.694;2023-03-26T16:43:13;99553.31;;;10.57;57.78
22241;BME280;11289;52.524;13.694;2023-03-26T16:45:53;99558.88;;;10.57;57.82
22241;BME280;11289;52.524;13.694;2023-03-26T16:48:49;99571.22;;;10.59;58.34
22241;BME280;11289;52.524;13.694;2023-03-26T16:51:55;99583.41;;;10.55;58.24
22241;BME280;11289;52.524;13.694;2023-03-26T16:54:32;99582.84;;;10.49;58.63
22241;BME280;11289;52.524;13.694;2023-03-26T16:57:22;99584.63;;;10.41;58.61
22241;BME280;11289;52.524;13.694;2023-03-26T17:03:48;99584.78;;;10.33;59.53
22241;BME280;11289;52.524;13.694;2023-03-26T17:09:01;99590.81;;;10.22;60.38
22241;BME280;11289;52.524;13.694;2023-03-26T17:11:55;99596.50;;;10.14;60.51
22241;BME280;11289;52.524;13.694;2023-03-26T17:14:59;99592.38;;;10.07;60.14
22241;BME280;11289;52.524;13.694;2023-03-26T17:17:36;99584.75;;;10.04;61.37
22241;BME280;11289;52.524;13.694;2023-03-26T17:22:45;99597.63;;;9.97;61.18
22241;BME280;11289;52.524;13.694;2023-03-26T17:25:32;99592.78;;;9.93;61.76
22241;BME280;11289;52.524;13.694;2023-03-26T17:28:24;99595.78;;;9.88;61.87
22241;BME280;11289;52.524;13.694;2023-03-26T17:33:38;99601.25;;;9.72;62.15
22241;BME280;11289;52.524;13.694;2023-03-26T17:41:10;99591.09;;;9.64;62.81
22241;BME280;11289;52.524;13.694;2023-03-26T17:43:51;99599.66;;;9.59;62.54
22241;BME280;11289;52.524;13.694;2023-03-26T17:46:36;99609.00;;;9.67;63.32
22241;BME280;11289;52.524;13.694;2023-03-26T17:49:27;99613.16;;;9.61;63.07
22241;BME280;11289;52.524;13.694;2023-03-26T17:51:58;99608.31;;;9.57;63.27
22241;BME280;11289;52.524;13.694;2023-03-26T17:54:34;99613.38;;;9.55;62.86
22241;BME280;11289;52.524;13.694;2023-03-26T17:57:23;99613.63;;;9.50;63.06
22241;BME280;11289;52.524;13.694;2023-03-26T17:59:56;99616.06;;;9.52;62.15
22241;BME280;11289;52.524;13.694;2023-03-26T18:02:34;99617.56;;;9.49;62.69
22241;BME280;11289;52.524;13.694;2023-03-26T18:05:03;99612.72;;;9.46;63.14
22241;BME280;11289;52.524;13.694;2023-03-26T18:16:17;99621.50;;;9.36;62.00
22241;BME280;11289;52.524;13.694;2023-03-26T18:18:55;99634.91;;;9.34;61.54
22241;BME280;11289;52.524;13.694;2023-03-26T18:21:38;99613.75;;;9.29;61.36
22241;BME280;11289;52.524;13.694;2023-03-26T18:24:13;99624.38;;;9.27;60.44
22241;BME280;11289;52.524;13.694;2023-03-26T18:26:47;99627.59;;;9.29;60.91